createdAt,value
2018-12-26T00:01:49.284Z,100294.94
2018-12-26T00:04:18.864Z,100297.07
2018-12-26T00:06:48.479Z,100293.71
2018-12-26T00:09:18.056Z,100290.16
2018-12-26T00:11:47.813Z,100287.18
2018-12-26T00:14:17.427Z,100286.61
2018-12-26T00:16:47.010Z,100278.41
2018-12-26T00:19:16.583Z,100273.09
2018-12-26T00:21:46.151Z,100274.02
2018-12-26T00:24:15.912Z,100269.72
2018-12-26T00:26:45.634Z,100263.64
2018-12-26T00:29:15.274Z,100262.63
2018-12-26T00:31:44.859Z,100259.75
2018-12-26T00:34:14.464Z,100262.87
2018-12-26T00:36:44.073Z,100266.69
2018-12-26T00:39:13.702Z,100268.12
2018-12-26T00:41:43.287Z,100277.35
2018-12-26T00:44:15.818Z,100282.29
2018-12-26T00:46:45.406Z,100281.23
2018-12-26T00:49:14.978Z,100284.98
2018-12-26T00:51:45.064Z,100292.09
2018-12-26T00:54:14.686Z,100301.09
2018-12-26T00:56:44.281Z,100308.08
2018-12-26T00:59:13.867Z,100308.49
2018-12-26T01:01:43.570Z,100307.94
2018-12-26T01:04:16.222Z,100309.41
2018-12-26T01:06:46.148Z,100311.84
2018-12-26T01:09:15.770Z,100299.38
2018-12-26T01:11:45.373Z,100300.59
2018-12-26T01:14:14.959Z,100294.04
2018-12-26T01:16:46.055Z,100288.54
2018-12-26T01:19:15.639Z,100285.81
2018-12-26T01:21:45.235Z,100278.75
2018-12-26T01:24:14.844Z,100265.56
2018-12-26T01:26:44.444Z,100263.92
2018-12-26T01:29:14.041Z,100259.47
2018-12-26T01:31:43.635Z,100265.58
2018-12-26T01:34:13.232Z,100260.95
2018-12-26T01:36:42.841Z,100254.91
2018-12-26T01:39:12.473Z,100261.80
2018-12-26T01:41:42.084Z,100265.22
2018-12-26T01:44:11.688Z,100266.80
2018-12-26T01:46:41.315Z,100263.10
2018-12-26T01:49:10.918Z,100264.80
2018-12-26T01:51:40.486Z,100258.94
2018-12-26T01:54:10.234Z,100260.69
2018-12-26T01:56:39.825Z,100244.51
2018-12-26T01:59:09.385Z,100258.30
2018-12-26T02:01:38.972Z,100257.36
2018-12-26T02:04:08.750Z,100262.16
2018-12-26T02:06:38.375Z,100254.84
2018-12-26T02:09:08.695Z,100261.74
2018-12-26T02:11:38.287Z,100264.98
2018-12-26T02:14:27.246Z,100270.77
2018-12-26T02:16:56.837Z,100262.81
2018-12-26T02:19:26.443Z,100262.14
2018-12-26T02:21:56.024Z,100260.89
2018-12-26T02:24:25.695Z,100249.45
2018-12-26T02:26:55.268Z,100258.30
2018-12-26T02:29:25.002Z,100247.17
2018-12-26T02:31:54.612Z,100241.75
2018-12-26T02:34:24.186Z,100238.17
2018-12-26T02:36:54.198Z,100231.80
2018-12-26T02:39:23.774Z,100221.73
2018-12-26T02:41:53.349Z,100223.00
2018-12-26T02:44:22.975Z,100207.78
2018-12-26T02:46:52.566Z,100207.21
2018-12-26T02:49:22.164Z,100212.73
2018-12-26T02:51:51.770Z,100206.12
2018-12-26T02:54:21.359Z,100200.86
2018-12-26T02:56:50.931Z,100204.37
2018-12-26T02:59:20.509Z,100200.39
2018-12-26T03:01:50.079Z,100205.00
2018-12-26T03:04:19.682Z,100208.89
2018-12-26T03:06:49.317Z,100205.96
2018-12-26T03:09:18.888Z,100208.53
2018-12-26T03:11:48.487Z,100206.72
2018-12-26T03:14:18.258Z,100200.07
2018-12-26T03:16:47.860Z,100199.53
2018-12-26T03:19:17.452Z,100198.45
2018-12-26T03:21:47.059Z,100199.50
2018-12-26T03:24:16.650Z,100197.36
2018-12-26T03:26:55.779Z,100192.53
2018-12-26T03:29:17.532Z,100196.28
2018-12-26T03:31:47.107Z,100189.60
2018-12-26T03:34:16.675Z,100187.50
2018-12-26T03:36:48.163Z,100193.27
2018-12-26T03:39:17.731Z,100190.81
2018-12-26T03:41:47.400Z,100185.14
2018-12-26T03:44:17.054Z,100180.84
2018-12-26T03:46:47.418Z,100177.67
2018-12-26T03:49:17.144Z,100173.69
2018-12-26T03:51:46.928Z,100175.59
2018-12-26T03:54:16.530Z,100176.91
2018-12-26T03:56:46.084Z,100175.31
2018-12-26T03:59:15.759Z,100169.94
2018-12-26T04:01:45.336Z,100164.18
2018-12-26T04:04:14.974Z,100170.89
2018-12-26T04:06:44.558Z,100169.08
2018-12-26T04:09:14.126Z,100174.67
2018-12-26T04:11:43.791Z,100177.72
2018-12-26T04:14:13.577Z,100179.13
2018-12-26T04:16:43.420Z,100184.79
2018-12-26T04:19:13.085Z,100176.95
2018-12-26T04:21:42.813Z,100172.59
2018-12-26T04:24:12.744Z,100174.30
2018-12-26T04:26:42.323Z,100166.07
2018-12-26T04:29:11.955Z,100168.97
2018-12-26T04:31:41.504Z,100174.59
2018-12-26T04:34:11.081Z,100170.47
2018-12-26T04:36:40.711Z,100169.27
2018-12-26T04:39:10.273Z,100173.75
2018-12-26T04:41:39.941Z,100170.25
2018-12-26T04:44:09.535Z,100183.14
2018-12-26T04:46:39.155Z,100177.93
2018-12-26T04:49:08.716Z,100182.00
2018-12-26T04:51:40.116Z,100181.28
2018-12-26T04:54:09.714Z,100193.78
2018-12-26T04:56:39.285Z,100194.19
2018-12-26T04:59:09.609Z,100201.19
2018-12-26T05:01:39.185Z,100202.14
2018-12-26T05:04:08.782Z,100210.94
2018-12-26T05:06:38.400Z,100202.36
2018-12-26T05:09:08.965Z,100201.66
2018-12-26T05:11:38.642Z,100194.98
2018-12-26T05:14:08.266Z,100197.41
2018-12-26T05:16:37.858Z,100198.95
2018-12-26T05:19:07.424Z,100195.73
2018-12-26T05:21:49.084Z,100189.11
2018-12-26T05:24:18.823Z,100193.93
2018-12-26T05:26:48.408Z,100193.89
2018-12-26T05:29:18.123Z,100196.94
2018-12-26T05:31:47.735Z,100196.39
2018-12-26T05:34:17.347Z,100204.47
2018-12-26T05:36:46.935Z,100202.53
2018-12-26T05:39:16.503Z,100212.91
2018-12-26T05:41:46.115Z,100208.88
2018-12-26T05:44:15.712Z,100209.39
2018-12-26T05:46:45.360Z,100203.65
2018-12-26T05:49:14.932Z,100208.15
2018-12-26T05:51:44.539Z,100210.56
2018-12-26T05:54:14.141Z,100210.89
2018-12-26T05:56:43.707Z,100217.99
2018-12-26T05:59:13.310Z,100213.70
2018-12-26T06:01:42.925Z,100214.16
2018-12-26T06:04:12.511Z,100226.14
2018-12-26T06:06:42.120Z,100220.11
2018-12-26T06:09:11.710Z,100219.53
2018-12-26T06:11:41.308Z,100215.66
2018-12-26T06:14:10.904Z,100211.39
2018-12-26T06:16:40.502Z,100217.24
2018-12-26T06:19:10.093Z,100223.83
2018-12-26T06:21:39.864Z,100226.31
2018-12-26T06:24:09.434Z,100231.52
2018-12-26T06:26:39.006Z,100234.08
2018-12-26T06:29:08.613Z,100236.63
2018-12-26T06:31:38.181Z,100240.83
2018-12-26T06:34:07.747Z,100234.52
2018-12-26T06:36:37.351Z,100238.27
2018-12-26T06:39:08.387Z,100236.94
2018-12-26T06:41:37.980Z,100239.05
2018-12-26T06:44:07.562Z,100246.98
2018-12-26T06:46:39.186Z,100253.95
2018-12-26T06:49:08.452Z,100250.29
2018-12-26T06:51:57.618Z,100251.09
2018-12-26T06:54:27.213Z,100257.09
2018-12-26T06:56:56.882Z,100262.80
2018-12-26T06:59:26.493Z,100254.21
2018-12-26T07:01:56.062Z,100256.80
2018-12-26T07:04:25.690Z,100262.57
2018-12-26T07:06:55.224Z,100267.10
2018-12-26T07:09:24.858Z,100267.29
2018-12-26T07:11:54.415Z,100261.30
2018-12-26T07:14:24.034Z,100268.59
2018-12-26T07:16:53.631Z,100263.19
2018-12-26T07:19:23.198Z,100263.28
2018-12-26T07:21:53.178Z,100264.50
2018-12-26T07:24:22.745Z,100272.84
2018-12-26T07:26:52.317Z,100272.98
2018-12-26T07:29:21.924Z,100277.77
2018-12-26T07:31:51.525Z,100276.67
2018-12-26T07:34:21.109Z,100273.86
2018-12-26T07:36:50.741Z,100275.84
2018-12-26T07:39:20.317Z,100270.32
2018-12-26T07:41:49.934Z,100270.61
2018-12-26T07:44:19.517Z,100267.23
2018-12-26T07:46:49.171Z,100269.50
2018-12-26T07:49:18.754Z,100270.44
2018-12-26T07:51:48.404Z,100277.03
2018-12-26T07:54:17.974Z,100280.95
2018-12-26T07:56:47.600Z,100284.82
2018-12-26T07:59:17.202Z,100274.55
2018-12-26T08:01:46.767Z,100283.47
2018-12-26T08:04:16.332Z,100282.72
2018-12-26T08:06:45.955Z,100288.83
2018-12-26T08:09:15.515Z,100292.41
2018-12-26T08:11:45.120Z,100286.92
2018-12-26T08:14:14.702Z,100291.53
2018-12-26T08:16:44.266Z,100294.13
2018-12-26T08:19:13.843Z,100287.61
2018-12-26T08:21:43.533Z,100287.38
2018-12-26T08:24:14.608Z,100292.66
2018-12-26T08:26:44.215Z,100296.17
2018-12-26T08:29:13.842Z,100295.54
2018-12-26T08:31:49.147Z,100289.30
2018-12-26T08:34:18.797Z,100284.69
2018-12-26T08:36:48.389Z,100277.22
2018-12-26T08:39:17.960Z,100267.47
2018-12-26T08:41:47.541Z,100252.01
2018-12-26T08:44:17.113Z,100243.87
2018-12-26T08:46:46.689Z,100237.59
2018-12-26T08:49:16.277Z,100243.63
2018-12-26T08:51:45.852Z,100235.73
2018-12-26T08:54:15.432Z,100244.75
2018-12-26T08:56:45.053Z,100239.04
2018-12-26T08:59:14.646Z,100230.94
2018-12-26T09:01:44.237Z,100225.78
2018-12-26T09:04:13.861Z,100224.52
2018-12-26T09:06:43.435Z,100228.59
2018-12-26T09:09:13.052Z,100224.59
2018-12-26T09:11:42.659Z,100219.59
2018-12-26T09:14:12.246Z,100208.17
2018-12-26T09:16:41.808Z,100210.28
2018-12-26T09:19:11.438Z,100201.67
2018-12-26T09:21:41.030Z,100205.30
2018-12-26T09:24:10.618Z,100201.66
2018-12-26T09:26:40.295Z,100202.27
2018-12-26T09:29:09.874Z,100200.16
2018-12-26T09:31:39.472Z,100192.84
2018-12-26T09:34:09.053Z,100183.17
2018-12-26T09:36:38.654Z,100178.31
2018-12-26T09:39:08.564Z,100179.63
2018-12-26T09:41:38.303Z,100188.36
2018-12-26T09:44:07.912Z,100180.70
2018-12-26T09:46:37.488Z,100176.36
2018-12-26T09:49:07.081Z,100183.50
2018-12-26T09:51:36.713Z,100186.44
2018-12-26T09:54:06.330Z,100174.69
2018-12-26T09:56:36.121Z,100164.88
2018-12-26T09:59:05.703Z,100157.20
2018-12-26T10:01:35.381Z,100149.79
2018-12-26T10:04:04.987Z,100146.75
2018-12-26T10:06:34.584Z,100139.86
2018-12-26T10:09:05.914Z,100140.80
2018-12-26T10:11:35.619Z,100132.01
2018-12-26T10:14:05.248Z,100155.03
2018-12-26T10:16:34.824Z,100158.59
2018-12-26T10:19:04.432Z,100137.25
2018-12-26T10:21:34.020Z,100150.35
2018-12-26T10:24:03.594Z,100136.21
2018-12-26T10:26:33.295Z,100129.85
2018-12-26T10:29:02.945Z,100127.86
2018-12-26T10:31:32.595Z,100126.56
2018-12-26T10:34:02.191Z,100130.99
2018-12-26T10:36:31.794Z,100130.33
2018-12-26T10:39:01.399Z,100130.48
2018-12-26T10:41:31.328Z,100123.36
2018-12-26T10:44:00.920Z,100129.69
2018-12-26T10:46:30.478Z,100128.11
2018-12-26T10:49:00.069Z,100129.24
2018-12-26T10:51:29.636Z,100121.27
2018-12-26T10:53:59.219Z,100125.22
2018-12-26T10:56:28.855Z,100122.78
2018-12-26T10:58:59.914Z,100125.52
2018-12-26T11:01:29.606Z,100125.20
2018-12-26T11:03:59.437Z,100131.23
2018-12-26T11:06:48.277Z,100126.23
2018-12-26T11:09:17.906Z,100124.34
2018-12-26T11:11:47.460Z,100141.98
2018-12-26T11:14:17.058Z,100128.98
2018-12-26T11:16:46.643Z,100118.23
2018-12-26T11:19:18.390Z,100111.75
2018-12-26T11:21:48.084Z,100099.14
2018-12-26T11:24:17.801Z,100103.14
2018-12-26T11:26:47.368Z,100090.06
2018-12-26T11:29:18.989Z,100089.61
2018-12-26T11:31:48.795Z,100098.47
2018-12-26T11:34:18.356Z,100103.49
2018-12-26T11:36:47.954Z,100092.36
2018-12-26T11:39:17.568Z,100088.91
2018-12-26T11:41:46.875Z,100077.55
2018-12-26T11:44:16.464Z,100073.63
2018-12-26T11:46:46.034Z,100072.55
2018-12-26T11:49:18.612Z,100068.48
2018-12-26T11:51:48.203Z,100073.72
2018-12-26T11:54:17.850Z,100068.50
2018-12-26T11:56:47.409Z,100059.12
2018-12-26T11:59:17.014Z,100058.46
2018-12-26T12:01:49.283Z,100051.52
2018-12-26T12:04:18.868Z,100052.80
2018-12-26T12:06:48.467Z,100048.22
2018-12-26T12:09:18.056Z,100042.34
2018-12-26T12:11:47.619Z,100043.34
2018-12-26T12:14:17.219Z,100043.25
2018-12-26T12:16:47.204Z,100051.30
2018-12-26T12:19:16.796Z,100056.79
2018-12-26T12:21:46.353Z,100060.51
2018-12-26T12:24:15.944Z,100056.25
2018-12-26T12:26:45.504Z,100050.41
2018-12-26T12:29:15.064Z,100047.13
2018-12-26T12:31:44.671Z,100041.63
2018-12-26T12:34:14.308Z,100037.65
2018-12-26T12:36:44.176Z,100029.73
2018-12-26T12:39:13.893Z,100030.57
2018-12-26T12:41:43.834Z,100026.56
2018-12-26T12:44:13.713Z,100022.94
2018-12-26T12:46:43.770Z,100032.51
2018-12-26T12:49:13.325Z,100032.19
2018-12-26T12:51:42.908Z,100024.05
2018-12-26T12:54:12.485Z,100031.07
2018-12-26T12:56:42.057Z,100029.88
2018-12-26T12:59:11.685Z,100017.64
2018-12-26T13:01:41.585Z,100023.13
2018-12-26T13:04:11.172Z,100040.73
2018-12-26T13:06:40.755Z,100047.70
2018-12-26T13:09:10.344Z,100052.31
2018-12-26T13:11:39.916Z,100059.59
2018-12-26T13:14:09.479Z,100060.91
2018-12-26T13:16:39.056Z,100064.60
2018-12-26T13:19:08.609Z,100064.03
2018-12-26T13:21:38.221Z,100057.67
2018-12-26T13:24:27.094Z,100049.25
2018-12-26T13:26:56.683Z,100050.80
2018-12-26T13:29:26.238Z,100048.58
2018-12-26T13:31:55.933Z,100051.98
2018-12-26T13:34:25.517Z,100052.98
2018-12-26T13:36:55.095Z,100052.53
2018-12-26T13:39:24.701Z,100052.99
2018-12-26T13:41:54.290Z,100055.02
2018-12-26T13:44:23.847Z,100059.22
2018-12-26T13:46:53.546Z,100062.45
2018-12-26T13:49:23.136Z,100061.66
2018-12-26T13:51:52.726Z,100069.09
2018-12-26T13:54:22.303Z,100072.89
2018-12-26T13:56:51.862Z,100074.34
2018-12-26T13:59:21.432Z,100074.62
2018-12-26T14:01:51.521Z,100075.84
2018-12-26T14:04:21.149Z,100071.83
2018-12-26T14:06:50.771Z,100077.25
2018-12-26T14:09:20.335Z,100075.31
2018-12-26T14:11:49.937Z,100076.20
2018-12-26T14:14:19.493Z,100077.42
2018-12-26T14:16:49.125Z,100077.20
2018-12-26T14:19:19.045Z,100088.91
2018-12-26T14:21:48.612Z,100087.95
2018-12-26T14:24:18.186Z,100084.64
2018-12-26T14:26:47.793Z,100082.46
2018-12-26T14:29:17.371Z,100091.22
2018-12-26T14:31:46.940Z,100095.38
2018-12-26T14:34:16.504Z,100092.91
2018-12-26T14:36:46.058Z,100092.69
2018-12-26T14:39:15.686Z,100091.28
2018-12-26T14:41:45.266Z,100089.01
2018-12-26T14:44:14.854Z,100092.94
2018-12-26T14:46:44.460Z,100086.95
2018-12-26T14:49:33.325Z,100089.67
2018-12-26T14:52:02.974Z,100088.92
2018-12-26T14:54:32.576Z,100089.20
2018-12-26T14:57:02.125Z,100084.45
2018-12-26T14:59:32.165Z,100083.44
2018-12-26T15:02:01.757Z,100089.88
2018-12-26T15:04:32.115Z,100087.52
2018-12-26T15:07:01.719Z,100084.55
2018-12-26T15:09:31.311Z,100087.82
2018-12-26T15:12:00.902Z,100084.95
2018-12-26T15:14:30.510Z,100090.84
2018-12-26T15:17:00.092Z,100085.00
2018-12-26T15:19:32.343Z,100088.75
2018-12-26T15:22:02.434Z,100092.99
2018-12-26T15:24:32.030Z,100091.84
2018-12-26T15:27:01.637Z,100088.75
2018-12-26T15:29:31.319Z,100097.06
2018-12-26T15:32:00.971Z,100095.26
2018-12-26T15:34:30.600Z,100096.63
2018-12-26T15:37:00.562Z,100096.58
2018-12-26T15:39:30.148Z,100095.05
2018-12-26T15:41:59.696Z,100091.48
2018-12-26T15:44:29.307Z,100093.64
2018-12-26T15:46:58.873Z,100092.09
2018-12-26T15:49:28.465Z,100088.49
2018-12-26T15:51:58.047Z,100081.52
2018-12-26T15:54:27.637Z,100077.84
2018-12-26T15:56:57.222Z,100074.91
2018-12-26T15:59:26.832Z,100073.72
2018-12-26T16:01:56.414Z,100074.27
2018-12-26T16:04:25.966Z,100067.89
2018-12-26T16:06:55.654Z,100070.15
2018-12-26T16:09:25.239Z,100072.14
2018-12-26T16:11:54.826Z,100072.68
2018-12-26T16:14:24.454Z,100074.87
2018-12-26T16:16:53.999Z,100071.82
2018-12-26T16:19:23.608Z,100073.71
2018-12-26T16:21:53.317Z,100071.67
2018-12-26T16:24:22.875Z,100072.30
2018-12-26T16:26:52.474Z,100069.75
2018-12-26T16:29:22.087Z,100075.50
2018-12-26T16:31:51.641Z,100072.35
2018-12-26T16:34:21.239Z,100070.45
2018-12-26T16:36:50.822Z,100073.33
2018-12-26T16:39:20.410Z,100076.98
2018-12-26T16:41:49.965Z,100076.57
2018-12-26T16:44:19.588Z,100076.76
2018-12-26T16:46:49.176Z,100075.98
2018-12-26T16:49:18.718Z,100062.73
2018-12-26T16:51:48.301Z,100062.83
2018-12-26T16:54:19.027Z,100063.95
2018-12-26T16:56:48.605Z,100066.23
2018-12-26T16:59:18.213Z,100063.67
2018-12-26T17:01:47.763Z,100066.67
2018-12-26T17:04:17.330Z,100066.49
2018-12-26T17:06:48.622Z,100060.25
2018-12-26T17:09:18.365Z,100070.74
2018-12-26T17:11:47.946Z,100074.22
2018-12-26T17:14:17.533Z,100068.20
2018-12-26T17:16:47.133Z,100074.03
2018-12-26T17:19:16.715Z,100069.28
2018-12-26T17:21:46.347Z,100068.33
2018-12-26T17:24:16.693Z,100069.33
2018-12-26T17:26:46.564Z,100068.78
2018-12-26T17:29:16.174Z,100066.27
2018-12-26T17:31:45.715Z,100065.03
2018-12-26T17:34:15.312Z,100070.45
2018-12-26T17:36:44.919Z,100072.48
2018-12-26T17:39:14.832Z,100071.55
2018-12-26T17:41:44.417Z,100074.23
2018-12-26T17:44:14.022Z,100077.91
2018-12-26T17:46:43.612Z,100079.37
2018-12-26T17:49:13.168Z,100078.17
2018-12-26T17:51:44.845Z,100078.49
2018-12-26T17:54:19.366Z,100083.05
2018-12-26T17:56:52.306Z,100079.52
2018-12-26T17:59:26.333Z,100083.44
2018-12-26T18:02:00.390Z,100088.84
2018-12-26T18:04:29.986Z,100087.56
2018-12-26T18:06:59.579Z,100096.30
2018-12-26T18:09:29.169Z,100093.81
2018-12-26T18:12:11.265Z,100094.39
2018-12-26T18:14:30.039Z,100093.69
2018-12-26T18:17:00.404Z,100095.45
2018-12-26T18:19:32.240Z,100094.58
2018-12-26T18:22:03.292Z,100100.27
2018-12-26T18:24:32.983Z,100099.76
2018-12-26T18:27:02.590Z,100097.60
2018-12-26T18:29:51.473Z,100093.03
2018-12-26T18:32:21.082Z,100087.41
2018-12-26T18:34:50.656Z,100088.95
2018-12-26T18:37:20.324Z,100086.20
2018-12-26T18:39:49.895Z,100080.86
2018-12-26T18:42:19.759Z,100083.72
2018-12-26T18:44:49.375Z,100085.45
2018-12-26T18:47:18.970Z,100082.06
2018-12-26T18:49:48.543Z,100079.10
2018-12-26T18:52:18.151Z,100076.78
2018-12-26T18:54:47.745Z,100081.27
2018-12-26T18:57:17.351Z,100080.06
2018-12-26T18:59:47.009Z,100080.25
2018-12-26T19:02:16.618Z,100081.55
2018-12-26T19:04:46.222Z,100080.27
2018-12-26T19:07:15.833Z,100077.83
2018-12-26T19:09:45.416Z,100074.46
2018-12-26T19:12:15.033Z,100081.75
2018-12-26T19:14:45.067Z,100089.06
2018-12-26T19:17:14.659Z,100086.91
2018-12-26T19:19:44.263Z,100086.70
2018-12-26T19:22:13.988Z,100087.14
2018-12-26T19:24:43.600Z,100086.64
2018-12-26T19:27:13.554Z,100089.59
2018-12-26T19:29:43.148Z,100084.45
2018-12-26T19:32:14.254Z,100091.95
2018-12-26T19:35:03.107Z,100083.16
2018-12-26T19:37:32.728Z,100083.42
2018-12-26T19:40:02.317Z,100083.16
2018-12-26T19:42:37.276Z,100077.86
2018-12-26T19:45:03.283Z,100078.05
2018-12-26T19:47:32.877Z,100083.53
2018-12-26T19:50:05.211Z,100083.64
2018-12-26T19:52:33.817Z,100079.36
2018-12-26T19:55:03.421Z,100081.38
2018-12-26T19:57:33.034Z,100079.27
2018-12-26T20:00:02.729Z,100071.55
2018-12-26T20:02:32.276Z,100068.25
2018-12-26T20:05:02.015Z,100063.03
2018-12-26T20:07:31.768Z,100061.03
2018-12-26T20:10:01.377Z,100055.59
2018-12-26T20:12:30.969Z,100058.22
2018-12-26T20:15:00.610Z,100060.84
2018-12-26T20:17:30.217Z,100053.91
2018-12-26T20:19:59.880Z,100048.06
2018-12-26T20:22:29.512Z,100053.50
2018-12-26T20:24:59.140Z,100048.77
2018-12-26T20:27:28.754Z,100039.72
2018-12-26T20:29:58.372Z,100039.06
2018-12-26T20:32:27.962Z,100042.45
2018-12-26T20:34:57.599Z,100044.64
2018-12-26T20:37:27.193Z,100050.06
2018-12-26T20:39:56.766Z,100036.66
2018-12-26T20:42:26.373Z,100040.13
2018-12-26T20:44:55.970Z,100037.44
2018-12-26T20:47:25.587Z,100029.34
2018-12-26T20:49:55.639Z,100029.02
2018-12-26T20:52:25.227Z,100034.18
2018-12-26T20:54:54.796Z,100029.20
2018-12-26T20:57:24.386Z,100027.58
2018-12-26T20:59:53.961Z,100026.63
2018-12-26T21:02:23.554Z,100027.73
2018-12-26T21:04:53.147Z,100029.11
2018-12-26T21:07:22.750Z,100028.87
2018-12-26T21:09:52.322Z,100022.17
2018-12-26T21:12:22.497Z,100019.38
2018-12-26T21:14:52.107Z,100024.30
2018-12-26T21:17:21.714Z,100025.43
2018-12-26T21:19:51.317Z,100017.70
2018-12-26T21:22:20.907Z,100021.34
2018-12-26T21:24:50.543Z,100026.11
2018-12-26T21:27:20.146Z,100023.23
2018-12-26T21:29:49.733Z,100020.36
2018-12-26T21:32:19.416Z,100013.01
2018-12-26T21:34:49.009Z,100016.78
2018-12-26T21:37:18.587Z,100013.63
2018-12-26T21:39:48.199Z,100009.78
2018-12-26T21:42:17.854Z,100007.30
2018-12-26T21:44:47.419Z,100008.05
2018-12-26T21:47:17.023Z,100005.25
2018-12-26T21:49:46.649Z,100001.81
2018-12-26T21:52:16.253Z,100002.69
2018-12-26T21:54:45.822Z,99995.66
2018-12-26T21:57:15.415Z,99992.75
2018-12-26T21:59:45.021Z,99990.50
2018-12-26T22:02:22.230Z,99985.25
2018-12-26T22:04:46.003Z,99985.78
2018-12-26T22:07:16.525Z,99985.23
2018-12-26T22:09:46.133Z,99975.33
2018-12-26T22:12:16.229Z,99977.44
2018-12-26T22:14:48.313Z,99976.53
2018-12-26T22:17:18.246Z,99976.89
2018-12-26T22:19:47.835Z,99974.93
2018-12-26T22:22:17.448Z,99972.75
2018-12-26T22:24:47.007Z,99971.45
2018-12-26T22:27:16.661Z,99966.08
2018-12-26T22:29:46.246Z,99968.02
2018-12-26T22:32:15.836Z,99963.98
2018-12-26T22:34:45.484Z,99962.63
2018-12-26T22:37:15.101Z,99955.08
2018-12-26T22:39:44.698Z,99958.03
2018-12-26T22:42:14.302Z,99956.77
2018-12-26T22:44:43.896Z,99954.86
2018-12-26T22:47:13.458Z,99945.01
2018-12-26T22:49:43.102Z,99943.94
2018-12-26T22:52:12.681Z,99938.45
2018-12-26T22:54:42.282Z,99936.99
2018-12-26T22:57:12.838Z,99930.70
2018-12-26T22:59:42.502Z,99932.06
2018-12-26T23:02:12.634Z,99930.55
2018-12-26T23:04:42.389Z,99928.53
2018-12-26T23:07:11.964Z,99925.25
2018-12-26T23:09:41.537Z,99918.99
2018-12-26T23:12:11.165Z,99923.78
2018-12-26T23:14:40.756Z,99919.23
2018-12-26T23:17:10.363Z,99920.22
2018-12-26T23:19:40.063Z,99917.04
2018-12-26T23:22:09.669Z,99919.97
2018-12-26T23:24:39.270Z,99919.66
2018-12-26T23:27:08.874Z,99913.33
2018-12-26T23:29:38.462Z,99919.19
2018-12-26T23:32:08.024Z,99913.99
2018-12-26T23:34:37.632Z,99915.38
2018-12-26T23:37:07.235Z,99917.12
2018-12-26T23:39:36.808Z,99914.39
2018-12-26T23:42:06.439Z,99914.34
2018-12-26T23:44:36.044Z,99905.77
2018-12-26T23:47:05.638Z,99906.31
2018-12-26T23:49:35.238Z,99902.70
2018-12-26T23:52:04.876Z,99900.80
2018-12-26T23:54:34.436Z,99902.24
2018-12-26T23:57:04.046Z,99903.60
2018-12-26T23:59:36.468Z,99904.56
